createdAt,value
2019-05-12T00:00:08.203Z,5.30
2019-05-12T00:02:39.709Z,5.40
2019-05-12T00:05:08.791Z,5.30
2019-05-12T00:07:38.209Z,5.40
2019-05-12T00:10:05.537Z,5.50
2019-05-12T00:12:32.313Z,5.40
2019-05-12T00:14:59.114Z,5.50
2019-05-12T00:17:28.333Z,5.50
2019-05-12T00:19:55.042Z,5.40
2019-05-12T00:22:23.854Z,5.30
2019-05-12T00:24:50.807Z,5.30
2019-05-12T00:27:19.421Z,5.20
2019-05-12T00:29:48.574Z,5.20
2019-05-12T00:32:15.210Z,5.30
2019-05-12T00:34:42.131Z,5.30
2019-05-12T00:37:09.025Z,5.30
2019-05-12T00:39:38.117Z,5.30
2019-05-12T00:42:04.530Z,5.30
2019-05-12T00:44:31.357Z,5.20
2019-05-12T00:46:58.245Z,5.10
2019-05-12T00:49:25.138Z,5.10
2019-05-12T00:51:52.083Z,5.00
2019-05-12T00:54:18.993Z,4.90
2019-05-12T00:56:48.010Z,4.90
2019-05-12T00:59:14.626Z,5.00
2019-05-12T01:01:41.417Z,4.90
2019-05-12T01:04:08.811Z,4.80
2019-05-12T01:06:38.479Z,4.70
2019-05-12T01:09:08.517Z,4.60
2019-05-12T01:11:34.566Z,4.50
2019-05-12T01:14:01.559Z,4.50
2019-05-12T01:16:28.955Z,4.50
2019-05-12T01:18:58.473Z,4.40
2019-05-12T01:21:24.789Z,4.30
2019-05-12T01:23:57.113Z,4.30
2019-05-12T01:26:20.519Z,4.20
2019-05-12T01:28:48.775Z,4.20
2019-05-12T01:31:18.065Z,4.10
2019-05-12T01:33:44.938Z,4.10
2019-05-12T01:36:11.803Z,4.00
2019-05-12T01:38:38.590Z,4.00
2019-05-12T01:41:05.621Z,4.00
2019-05-12T01:43:32.581Z,3.90
2019-05-12T01:45:59.394Z,3.90
2019-05-12T01:48:28.521Z,3.70
2019-05-12T01:50:54.856Z,3.60
2019-05-12T01:53:21.774Z,3.70
2019-05-12T01:55:48.711Z,3.80
2019-05-12T01:58:15.630Z,3.80
2019-05-12T02:00:42.471Z,3.90
2019-05-12T02:03:09.743Z,3.90
2019-05-12T02:05:38.191Z,3.90
2019-05-12T02:08:06.987Z,3.80
2019-05-12T02:10:33.769Z,3.70
2019-05-12T02:13:00.682Z,3.60
2019-05-12T02:15:27.951Z,3.60
2019-05-12T02:17:55.178Z,3.60
2019-05-12T02:20:22.297Z,3.60
2019-05-12T02:22:49.083Z,3.60
2019-05-12T02:25:18.368Z,3.70
2019-05-12T02:27:44.776Z,3.70
2019-05-12T02:30:13.358Z,3.80
2019-05-12T02:32:48.551Z,3.90
2019-05-12T02:35:09.545Z,3.80
2019-05-12T02:37:36.427Z,3.80
2019-05-12T02:40:05.988Z,3.80
2019-05-12T02:42:34.904Z,3.80
2019-05-12T02:45:05.229Z,3.90
2019-05-12T02:47:30.773Z,4.10
2019-05-12T02:49:57.552Z,4.10
2019-05-12T02:52:25.221Z,4.20
2019-05-12T02:54:59.788Z,4.30
2019-05-12T02:57:25.615Z,4.40
2019-05-12T02:59:54.078Z,4.50
2019-05-12T03:02:24.618Z,4.60
2019-05-12T03:04:54.766Z,4.70
2019-05-12T03:07:25.501Z,4.80
2019-05-12T03:09:55.118Z,4.80
2019-05-12T03:12:25.282Z,4.80
2019-05-12T03:14:50.914Z,4.90
2019-05-12T03:17:17.837Z,5.00
2019-05-12T03:19:44.939Z,5.10
2019-05-12T03:22:14.123Z,5.30
2019-05-12T03:24:40.525Z,5.40
2019-05-12T03:27:07.297Z,5.50
2019-05-12T03:29:34.534Z,5.50
2019-05-12T03:32:07.532Z,5.50
2019-05-12T03:34:30.309Z,5.60
2019-05-12T03:36:59.249Z,5.70
2019-05-12T03:39:26.169Z,5.70
2019-05-12T03:41:54.625Z,5.70
2019-05-12T03:44:24.996Z,5.80
2019-05-12T03:46:50.423Z,5.80
2019-05-12T03:49:17.239Z,5.90
2019-05-12T03:51:45.711Z,6.00
2019-05-12T03:54:15.265Z,6.00
2019-05-12T03:56:44.276Z,6.10
2019-05-12T03:59:10.463Z,6.20
2019-05-12T04:01:37.366Z,6.20
2019-05-12T04:04:05.316Z,6.30
2019-05-12T04:06:34.571Z,6.30
2019-05-12T04:09:04.564Z,6.40
2019-05-12T04:11:30.606Z,6.50
2019-05-12T04:13:57.434Z,6.50
2019-05-12T04:16:24.807Z,6.60
2019-05-12T04:18:54.939Z,6.70
2019-05-12T04:21:20.639Z,6.70
2019-05-12T04:23:47.422Z,6.80
2019-05-12T04:26:16.962Z,6.90
2019-05-12T04:28:45.529Z,7.00
2019-05-12T04:31:11.631Z,7.00
2019-05-12T04:33:38.407Z,7.10
2019-05-12T04:36:05.712Z,7.10
2019-05-12T04:38:35.503Z,7.10
2019-05-12T04:41:01.483Z,7.20
2019-05-12T04:43:28.366Z,7.20
2019-05-12T04:45:55.165Z,7.30
2019-05-12T04:48:25.432Z,7.40
2019-05-12T04:50:50.787Z,7.40
2019-05-12T04:53:17.573Z,7.50
2019-05-12T04:55:44.820Z,7.50
2019-05-12T04:58:15.227Z,7.50
2019-05-12T05:01:00.533Z,7.60
2019-05-12T05:03:27.474Z,7.60
2019-05-12T05:05:55.014Z,7.70
2019-05-12T05:08:24.347Z,7.70
2019-05-12T05:10:50.698Z,7.80
2019-05-12T05:13:17.535Z,7.90
2019-05-12T05:15:44.896Z,8.00
2019-05-12T05:18:13.353Z,8.10
2019-05-12T05:20:40.405Z,8.20
2019-05-12T05:23:07.371Z,8.40
2019-05-12T05:25:34.358Z,8.30
2019-05-12T05:28:03.718Z,8.40
2019-05-12T05:30:30.092Z,8.40
2019-05-12T05:32:56.906Z,8.60
2019-05-12T05:35:23.966Z,8.90
2019-05-12T05:37:50.961Z,9.10
2019-05-12T05:40:19.788Z,9.00
2019-05-12T05:42:46.772Z,9.00
2019-05-12T05:45:21.397Z,8.80
2019-05-12T05:47:44.268Z,8.80
2019-05-12T05:50:18.361Z,8.80
2019-05-12T05:52:46.751Z,8.80
2019-05-12T05:55:19.996Z,9.00
2019-05-12T05:57:44.367Z,9.20
2019-05-12T06:00:17.462Z,9.30
2019-05-12T06:02:40.724Z,9.50
2019-05-12T06:05:07.826Z,9.60
2019-05-12T06:07:38.943Z,9.70
2019-05-12T06:10:04.371Z,9.60
2019-05-12T06:12:33.017Z,9.60
2019-05-12T06:15:00.035Z,9.40
2019-05-12T06:17:27.143Z,9.50
2019-05-12T06:19:54.037Z,9.40
2019-05-12T06:22:20.842Z,9.00
2019-05-12T06:24:49.215Z,9.20
2019-05-12T06:27:20.856Z,9.50
2019-05-12T06:29:45.092Z,9.80
2019-05-12T06:32:14.032Z,9.70
2019-05-12T06:34:40.773Z,9.60
2019-05-12T06:37:11.880Z,9.60
2019-05-12T06:39:36.410Z,10.20
2019-05-12T06:42:12.404Z,10.20
2019-05-12T06:44:33.474Z,10.40
2019-05-12T06:47:03.631Z,10.70
2019-05-12T06:49:29.264Z,10.80
2019-05-12T06:52:01.780Z,10.80
2019-05-12T06:54:24.912Z,11.00
2019-05-12T06:56:57.910Z,10.80
2019-05-12T06:59:20.594Z,11.10
2019-05-12T07:01:49.806Z,11.20
2019-05-12T07:04:16.091Z,11.10
2019-05-12T07:06:44.122Z,10.80
2019-05-12T07:09:16.407Z,10.80
2019-05-12T07:11:44.918Z,11.00
2019-05-12T07:14:18.934Z,11.70
2019-05-12T07:16:37.821Z,11.40
2019-05-12T07:19:07.640Z,11.30
2019-05-12T07:21:33.670Z,11.20
2019-05-12T07:24:05.940Z,11.60
2019-05-12T07:26:29.262Z,11.90
2019-05-12T07:28:56.106Z,11.70
2019-05-12T07:31:23.445Z,11.60
2019-05-12T07:33:50.510Z,11.40
2019-05-12T07:36:18.150Z,11.50
2019-05-12T07:38:46.245Z,11.60
2019-05-12T07:41:14.493Z,11.70
2019-05-12T07:43:44.149Z,11.90
2019-05-12T07:46:10.533Z,12.00
2019-05-12T07:48:40.227Z,12.10
2019-05-12T07:51:06.210Z,11.80
2019-05-12T07:53:33.846Z,12.00
2019-05-12T07:56:01.089Z,12.30
2019-05-12T07:58:28.102Z,11.70
2019-05-12T08:01:02.482Z,11.70
2019-05-12T08:03:24.327Z,11.70
2019-05-12T08:05:56.676Z,11.70
2019-05-12T08:08:20.166Z,11.80
2019-05-12T08:10:51.405Z,11.50
2019-05-12T08:13:18.489Z,11.20
2019-05-12T08:15:48.893Z,11.00
2019-05-12T08:18:13.978Z,11.30
2019-05-12T08:20:43.367Z,11.90
2019-05-12T08:23:10.698Z,11.60
2019-05-12T08:25:37.794Z,11.50
2019-05-12T08:28:15.028Z,12.00
2019-05-12T08:30:35.054Z,12.30
2019-05-12T08:33:07.362Z,12.00
2019-05-12T08:35:35.038Z,12.10
2019-05-12T08:37:59.699Z,12.10
2019-05-12T08:40:26.638Z,12.10
2019-05-12T08:45:25.709Z,12.80
2019-05-12T08:47:50.077Z,12.60
2019-05-12T08:50:17.082Z,12.10
2019-05-12T08:52:44.426Z,12.20
2019-05-12T08:55:14.728Z,11.80
2019-05-12T08:57:46.488Z,11.80
2019-05-12T09:00:09.854Z,12.60
2019-05-12T09:02:39.856Z,12.90
2019-05-12T09:05:05.661Z,12.40
2019-05-12T09:07:35.963Z,12.30
2019-05-12T09:10:04.150Z,12.90
2019-05-12T09:12:33.746Z,13.10
2019-05-12T09:15:00.664Z,12.70
2019-05-12T09:17:27.480Z,12.40
2019-05-12T09:20:03.630Z,12.60
2019-05-12T09:22:26.127Z,13.00
2019-05-12T09:24:53.444Z,13.30
2019-05-12T09:27:20.345Z,13.20
2019-05-12T09:29:47.151Z,13.00
2019-05-12T09:32:14.581Z,13.80
2019-05-12T09:34:46.867Z,14.20
2019-05-12T09:37:10.413Z,13.70
2019-05-12T09:39:42.618Z,13.20
2019-05-12T09:42:06.026Z,13.10
2019-05-12T09:44:34.043Z,13.40
2019-05-12T09:47:01.315Z,13.20
2019-05-12T09:49:31.322Z,13.20
2019-05-12T09:51:56.876Z,13.60
2019-05-12T09:54:26.179Z,13.80
2019-05-12T09:56:57.814Z,13.50
2019-05-12T09:59:23.655Z,14.00
2019-05-12T10:01:50.101Z,14.00
2019-05-12T10:04:19.615Z,14.30
2019-05-12T10:06:45.561Z,14.40
2019-05-12T10:09:17.662Z,14.10
2019-05-12T10:11:41.086Z,13.30
2019-05-12T10:14:10.804Z,13.60
2019-05-12T10:16:39.451Z,13.70
2019-05-12T10:19:05.386Z,13.80
2019-05-12T10:21:32.175Z,13.80
2019-05-12T10:24:01.780Z,14.50
2019-05-12T10:26:27.790Z,14.30
2019-05-12T10:28:58.266Z,14.50
2019-05-12T10:31:24.258Z,14.50
2019-05-12T10:33:55.047Z,14.50
2019-05-12T10:36:21.805Z,14.80
2019-05-12T10:38:48.600Z,14.10
2019-05-12T10:41:15.390Z,13.90
2019-05-12T10:43:43.324Z,13.70
2019-05-12T10:46:10.352Z,13.60
2019-05-12T10:48:37.289Z,13.60
2019-05-12T10:51:04.201Z,14.10
2019-05-12T10:53:31.004Z,13.70
2019-05-12T10:55:57.810Z,14.00
2019-05-12T10:58:25.000Z,14.20
2019-05-12T11:00:53.722Z,14.20
2019-05-12T11:03:20.931Z,13.60
2019-05-12T11:05:47.833Z,13.60
2019-05-12T11:08:14.743Z,14.00
2019-05-12T11:10:41.687Z,14.20
2019-05-12T11:13:10.001Z,14.40
2019-05-12T11:15:39.501Z,14.10
2019-05-12T11:18:11.085Z,13.70
2019-05-12T11:20:37.865Z,14.10
2019-05-12T11:23:04.757Z,14.30
2019-05-12T11:25:33.745Z,14.00
2019-05-12T11:28:00.578Z,13.40
2019-05-12T11:30:27.358Z,13.50
2019-05-12T11:32:54.361Z,13.60
2019-05-12T11:35:23.528Z,13.20
2019-05-12T11:37:49.966Z,13.30
2019-05-12T11:40:16.765Z,14.00
2019-05-12T11:42:46.750Z,13.40
2019-05-12T11:45:13.575Z,13.10
2019-05-12T11:47:40.691Z,12.70
2019-05-12T11:50:09.954Z,13.00
2019-05-12T11:52:36.485Z,13.20
2019-05-12T11:55:03.846Z,12.60
2019-05-12T11:57:30.630Z,13.00
2019-05-12T12:00:01.116Z,13.50
2019-05-12T12:02:30.222Z,13.50
2019-05-12T12:04:54.947Z,13.80
2019-05-12T12:07:23.801Z,14.00
2019-05-12T12:09:55.932Z,14.00
2019-05-12T12:12:19.445Z,13.90
2019-05-12T12:14:50.285Z,14.00
2019-05-12T12:17:15.046Z,14.20
2019-05-12T12:19:46.692Z,14.10
2019-05-12T12:22:10.555Z,13.80
2019-05-12T12:24:38.403Z,13.90
2019-05-12T12:27:05.558Z,13.90
2019-05-12T12:29:34.435Z,13.90
2019-05-12T12:32:01.193Z,13.60
2019-05-12T12:34:30.213Z,13.80
2019-05-12T12:36:56.735Z,13.90
2019-05-12T12:39:23.855Z,13.90
2019-05-12T12:41:57.887Z,13.80
2019-05-12T12:44:19.769Z,13.70
2019-05-12T12:46:51.243Z,13.70
2019-05-12T12:49:15.331Z,13.80
2019-05-12T12:51:43.539Z,13.80
2019-05-12T12:54:10.493Z,13.80
2019-05-12T12:56:37.283Z,13.90
2019-05-12T12:59:10.368Z,13.70
2019-05-12T13:01:35.181Z,13.70
2019-05-12T13:04:04.598Z,13.30
2019-05-12T13:06:30.948Z,12.90
2019-05-12T13:08:57.855Z,13.00
2019-05-12T13:11:33.116Z,13.30
2019-05-12T13:13:53.559Z,13.50
2019-05-12T13:16:20.589Z,13.50
2019-05-12T13:18:47.430Z,13.60
2019-05-12T13:21:14.353Z,13.30
2019-05-12T13:23:41.422Z,13.40
2019-05-12T13:26:08.368Z,13.60
2019-05-12T13:28:35.178Z,13.70
2019-05-12T13:31:08.987Z,13.70
2019-05-12T13:33:30.979Z,14.10
2019-05-12T13:35:57.769Z,14.10
2019-05-12T13:38:24.686Z,13.60
2019-05-12T13:40:53.773Z,14.00
2019-05-12T13:43:20.453Z,13.60
2019-05-12T13:45:47.313Z,13.10
2019-05-12T13:48:15.816Z,12.80
2019-05-12T13:50:43.402Z,13.10
2019-05-12T13:53:10.628Z,13.30
2019-05-12T13:55:39.351Z,13.40
2019-05-12T13:58:06.139Z,13.40
2019-05-12T14:00:33.575Z,13.30
2019-05-12T14:03:04.551Z,13.40
2019-05-12T14:05:29.273Z,13.50
2019-05-12T14:07:57.414Z,13.60
2019-05-12T14:10:24.777Z,13.10
2019-05-12T14:12:53.895Z,12.90
2019-05-12T14:15:20.700Z,12.70
2019-05-12T14:17:47.510Z,12.90
2019-05-12T14:20:18.557Z,12.90
2019-05-12T14:22:44.750Z,13.00
2019-05-12T14:25:14.873Z,13.30
2019-05-12T14:27:40.847Z,13.10
2019-05-12T14:30:10.500Z,12.90
2019-05-12T14:32:36.677Z,13.00
2019-05-12T14:35:04.413Z,13.10
2019-05-12T14:37:33.476Z,12.70
2019-05-12T14:40:00.096Z,12.60
2019-05-12T14:42:34.721Z,12.40
2019-05-12T14:44:55.634Z,12.30
2019-05-12T14:47:27.870Z,12.40
2019-05-12T14:49:51.196Z,12.70
2019-05-12T14:52:17.981Z,12.70
2019-05-12T14:54:44.905Z,12.70
2019-05-12T14:57:13.835Z,12.50
2019-05-12T14:59:41.172Z,12.60
2019-05-12T15:02:08.265Z,12.50
2019-05-12T15:04:35.077Z,12.50
2019-05-12T15:07:08.033Z,12.70
2019-05-12T15:09:30.774Z,12.70
2019-05-12T15:11:57.585Z,12.40
2019-05-12T15:14:32.331Z,12.50
2019-05-12T15:16:54.187Z,12.50
2019-05-12T15:19:27.798Z,12.40
2019-05-12T15:21:50.189Z,12.30
2019-05-12T15:24:18.903Z,12.30
2019-05-12T15:26:50.515Z,12.20
2019-05-12T15:29:19.887Z,12.20
2019-05-12T15:31:53.276Z,12.30
2019-05-12T15:34:14.201Z,12.50
2019-05-12T15:36:43.615Z,12.40
2019-05-12T15:39:09.833Z,12.40
2019-05-12T15:41:36.782Z,12.50
2019-05-12T15:44:06.478Z,12.40
2019-05-12T15:46:40.810Z,12.50
2019-05-12T15:49:03.273Z,12.20
2019-05-12T15:51:29.896Z,12.30
2019-05-12T15:54:05.457Z,12.20
2019-05-12T15:56:26.251Z,12.30
2019-05-12T15:58:55.853Z,12.20
2019-05-12T16:01:24.397Z,12.20
2019-05-12T16:03:51.100Z,12.40
2019-05-12T16:06:18.114Z,12.70
2019-05-12T16:08:45.153Z,12.20
2019-05-12T16:11:13.994Z,12.20
2019-05-12T16:13:45.001Z,12.20
2019-05-12T16:16:09.751Z,11.90
2019-05-12T16:18:40.634Z,11.60
2019-05-12T16:21:09.303Z,11.40
2019-05-12T16:23:34.267Z,11.30
2019-05-12T16:26:06.368Z,11.10
2019-05-12T16:28:30.094Z,11.10
2019-05-12T16:30:59.013Z,11.10
2019-05-12T16:33:25.613Z,10.90
2019-05-12T16:35:54.563Z,10.80
2019-05-12T16:38:23.491Z,10.90
2019-05-12T16:40:50.080Z,10.90
2019-05-12T16:43:17.047Z,10.90
2019-05-12T16:45:43.817Z,11.00
2019-05-12T16:48:28.226Z,11.00
2019-05-12T16:50:39.589Z,11.00
2019-05-12T16:53:06.400Z,10.80
2019-05-12T16:55:44.868Z,10.80
2019-05-12T16:58:03.958Z,10.70
2019-05-12T17:00:33.800Z,10.70
2019-05-12T17:02:59.929Z,10.60
2019-05-12T17:05:26.840Z,10.50
2019-05-12T17:07:55.789Z,10.40
2019-05-12T17:10:24.414Z,10.40
2019-05-12T17:12:51.490Z,10.30
2019-05-12T17:15:18.431Z,10.30
2019-05-12T17:17:45.254Z,10.20
2019-05-12T17:20:13.788Z,10.20
2019-05-12T17:22:45.468Z,10.10
2019-05-12T17:25:10.490Z,10.10
2019-05-12T17:27:37.697Z,10.00
2019-05-12T17:30:05.018Z,10.00
2019-05-12T17:32:31.826Z,10.00
2019-05-12T17:34:58.915Z,10.00
2019-05-12T17:37:25.753Z,10.00
2019-05-12T17:39:52.638Z,9.90
2019-05-12T17:42:21.534Z,9.90
2019-05-12T17:44:48.321Z,9.80
2019-05-12T17:47:21.181Z,9.80
2019-05-12T17:49:44.043Z,9.70
2019-05-12T17:52:13.132Z,9.70
2019-05-12T17:54:39.638Z,9.60
2019-05-12T17:57:09.504Z,9.60
2019-05-12T17:59:35.225Z,9.50
2019-05-12T18:02:05.742Z,9.50
2019-05-12T18:04:33.217Z,9.40
2019-05-12T18:07:06.090Z,9.30
2019-05-12T18:09:30.568Z,9.20
2019-05-12T18:11:57.348Z,9.20
2019-05-12T18:14:51.781Z,9.20
2019-05-12T18:17:14.197Z,9.00
2019-05-12T18:19:41.551Z,9.00
2019-05-12T18:22:09.489Z,8.90
2019-05-12T18:24:40.941Z,8.90
2019-05-12T18:27:07.803Z,8.90
2019-05-12T18:29:34.215Z,8.80
2019-05-12T18:32:01.022Z,8.70
2019-05-12T18:34:27.933Z,8.70
2019-05-12T18:36:59.356Z,8.60
2019-05-12T18:39:24.348Z,8.50
2019-05-12T18:41:51.432Z,8.40
2019-05-12T18:44:28.785Z,8.40
2019-05-12T18:46:46.938Z,8.30
2019-05-12T18:49:16.098Z,8.10
2019-05-12T18:51:43.502Z,8.10
2019-05-12T18:54:12.242Z,8.00
2019-05-12T18:56:39.389Z,7.90
2019-05-12T18:59:11.463Z,7.80
2019-05-12T19:01:37.250Z,7.60
2019-05-12T19:04:04.191Z,7.60
2019-05-12T19:06:30.999Z,7.50
2019-05-12T19:08:57.990Z,7.50
2019-05-12T19:11:31.932Z,7.30
2019-05-12T19:13:57.203Z,7.20
2019-05-12T19:16:23.812Z,7.10
2019-05-12T19:18:51.052Z,7.00
2019-05-12T19:21:20.106Z,6.90
2019-05-12T19:23:46.617Z,6.80
2019-05-12T19:26:13.683Z,6.70
2019-05-12T19:28:44.367Z,6.70
2019-05-12T19:31:10.222Z,6.70
2019-05-12T19:33:43.869Z,6.70
2019-05-12T19:36:08.079Z,6.50
2019-05-12T19:38:34.719Z,6.40
2019-05-12T19:41:01.733Z,6.30
2019-05-12T19:43:28.717Z,6.30
2019-05-12T19:46:02.918Z,6.20
2019-05-12T19:48:27.457Z,6.10
2019-05-12T19:50:57.289Z,6.20
2019-05-12T19:53:24.429Z,6.10
2019-05-12T19:55:51.221Z,6.00
2019-05-12T19:58:18.103Z,6.10
2019-05-12T20:00:44.998Z,6.00
2019-05-12T20:03:13.855Z,6.00
2019-05-12T20:05:40.760Z,6.00
2019-05-12T20:08:07.565Z,6.00
2019-05-12T20:10:36.187Z,5.90
2019-05-12T20:13:03.918Z,5.80
2019-05-12T20:15:36.684Z,5.80
2019-05-12T20:17:59.788Z,5.70
2019-05-12T20:20:36.663Z,5.70
2019-05-12T20:22:55.613Z,5.60
2019-05-12T20:25:23.634Z,5.50
2019-05-12T20:27:57.046Z,5.50
2019-05-12T20:30:21.151Z,5.50
2019-05-12T20:32:48.123Z,5.50
2019-05-12T20:35:15.165Z,5.50
2019-05-12T20:37:44.162Z,5.50
2019-05-12T20:40:13.434Z,5.50
2019-05-12T20:42:42.448Z,5.50
2019-05-12T20:45:08.579Z,5.50
2019-05-12T20:47:39.196Z,5.50
2019-05-12T20:50:04.523Z,5.40
2019-05-12T20:52:31.370Z,5.40
2019-05-12T20:54:59.883Z,5.30
2019-05-12T20:57:26.872Z,5.20
2019-05-12T20:59:58.224Z,5.20
2019-05-12T21:02:23.364Z,5.10
2019-05-12T21:05:00.626Z,5.10
2019-05-12T21:07:22.125Z,5.10
2019-05-12T21:09:47.959Z,5.10
2019-05-12T21:12:14.735Z,5.20
2019-05-12T21:14:50.689Z,5.20
2019-05-12T21:17:15.897Z,5.20
2019-05-12T21:19:41.483Z,5.10
2019-05-12T21:22:08.046Z,5.20
2019-05-12T21:24:39.267Z,5.10
2019-05-12T21:27:14.974Z,5.10
2019-05-12T21:29:38.381Z,5.00
2019-05-12T21:32:11.881Z,5.00
2019-05-12T21:34:34.520Z,5.00
2019-05-12T21:37:04.808Z,4.90
2019-05-12T21:39:30.439Z,4.90
2019-05-12T21:41:57.248Z,4.90
2019-05-12T21:44:24.588Z,4.80
2019-05-12T21:47:00.930Z,4.80
2019-05-12T21:49:20.507Z,4.70
2019-05-12T21:51:50.378Z,4.60
2019-05-12T21:54:16.006Z,4.60
2019-05-12T21:56:44.901Z,4.50
2019-05-12T21:59:13.397Z,4.40
2019-05-12T22:01:43.272Z,4.30
2019-05-12T22:04:09.865Z,4.30
2019-05-12T22:06:37.193Z,4.30
2019-05-12T22:09:05.878Z,4.20
2019-05-12T22:11:34.677Z,4.20
2019-05-12T22:14:04.594Z,4.10
2019-05-12T22:16:39.517Z,4.00
2019-05-12T22:19:03.567Z,4.00
2019-05-12T22:21:35.782Z,3.90
2019-05-12T22:24:00.320Z,3.90
2019-05-12T22:26:30.720Z,3.90
2019-05-12T22:28:56.925Z,3.90
2019-05-12T22:31:24.339Z,3.80
2019-05-12T22:33:53.524Z,3.80
2019-05-12T22:36:26.783Z,3.80
2019-05-12T22:38:54.324Z,3.80
2019-05-12T22:41:19.421Z,3.70
2019-05-12T22:43:46.746Z,3.60
2019-05-12T22:46:16.522Z,3.60
2019-05-12T22:48:45.264Z,3.50
2019-05-12T22:51:17.762Z,3.50
2019-05-12T22:53:43.423Z,3.50
2019-05-12T22:56:17.445Z,3.50
2019-05-12T22:58:40.204Z,3.50
2019-05-12T23:01:07.559Z,3.60
2019-05-12T23:03:34.907Z,3.60
2019-05-12T23:06:13.003Z,3.60
2019-05-12T23:08:33.345Z,3.50
2019-05-12T23:11:00.736Z,3.50
2019-05-12T23:13:32.171Z,3.50
2019-05-12T23:15:57.336Z,3.50
2019-05-12T23:18:30.587Z,3.40
2019-05-12T23:20:55.727Z,3.50
2019-05-12T23:23:24.353Z,3.50
2019-05-12T23:26:00.087Z,3.50
2019-05-12T23:28:21.153Z,3.40
2019-05-12T23:30:50.097Z,3.40
2019-05-12T23:33:17.620Z,3.40
2019-05-12T23:35:44.938Z,3.40
2019-05-12T23:38:19.306Z,3.30
2019-05-12T23:40:43.350Z,3.30
2019-05-12T23:43:10.765Z,3.20
2019-05-12T23:45:38.088Z,3.20
2019-05-12T23:48:05.469Z,3.10
2019-05-12T23:50:32.839Z,3.10
2019-05-12T23:53:00.253Z,3.00
2019-05-12T23:55:27.599Z,2.90
2019-05-12T23:57:54.921Z,2.90
